Time;durP1;ratioP1;P1;durP2;ratioP2;P2;SDS_P1;SDS_P2;PMS_P1;PMS_P2;Temp;Humidity;BMP_temperature;BMP_pressure;BME280_temperature;BME280_humidity;BME280_pressure;Samples;Min_cycle;Max_cycle;Signal;HPM_P1;HPM_P2
2021/04/28 00:02:26;;;;;;;;;33.40;29.60;;;;;10.97;32.62;98462.00;6287637;27;125376;-63
2021/04/28 00:05:29;;;;;;;;;35.60;32.00;;;;;10.95;32.43;98454.16;6289322;27;126083;-63
2021/04/28 00:08:32;;;;;;;;;35.00;31.00;;;;;10.86;32.67;98459.06;6275032;27;125583;-63
2021/04/28 00:11:35;;;;;;;;;37.00;32.00;;;;;10.83;32.63;98450.63;6274046;27;126409;-63
2021/04/28 00:14:53;;;;;;;;;35.50;30.25;;;;;10.65;32.84;98453.44;6254941;27;123548;-63
2021/04/28 00:17:56;;;;;;;;;34.40;31.40;;;;;10.66;32.98;98453.19;6283634;27;124559;-63
2021/04/28 00:21:00;;;;;;;;;36.00;32.00;;;;;10.63;32.67;98445.59;6287328;27;124913;-63
2021/04/28 00:24:03;;;;;;;;;35.50;31.25;;;;;10.63;32.67;98455.53;6282375;27;124948;-63
2021/04/28 00:27:05;;;;;;;;;33.40;30.00;;;;;10.65;32.53;98450.75;6282340;27;126311;-63
2021/04/28 00:30:11;;;;;;;;;37.00;31.00;;;;;10.62;32.74;98448.50;6283248;27;126388;-63
2021/04/28 00:33:13;;;;;;;;;35.20;31.00;;;;;10.62;32.52;98453.88;6285969;27;128053;-62
2021/04/28 00:36:16;;;;;;;;;35.00;31.25;;;;;10.59;32.69;98452.50;6287711;27;125259;-64
2021/04/28 00:39:18;;;;;;;;;34.75;31.00;;;;;10.50;32.86;98445.81;6287206;27;125239;-63
2021/04/28 00:42:21;;;;;;;;;32.60;30.00;;;;;10.51;32.86;98446.59;6280591;27;125984;-63
2021/04/28 00:45:25;;;;;;;;;35.33;31.00;;;;;10.54;32.71;98454.25;6260375;27;124122;-63
2021/04/28 00:48:27;;;;;;;;;35.80;32.00;;;;;10.51;32.87;98439.34;6284903;27;125554;-63
2021/04/28 00:51:31;;;;;;;;;31.20;29.80;;;;;10.53;32.98;98449.91;6277664;27;126969;-63
2021/04/28 00:54:33;;;;;;;;;36.50;32.00;;;;;10.40;32.92;98446.38;6271547;27;126149;-62
2021/04/28 00:57:36;;;;;;;;;33.00;30.00;;;;;10.43;32.87;98440.50;6287608;27;124884;-63
2021/04/28 01:00:40;;;;;;;;;37.00;32.00;;;;;10.45;32.92;98448.38;6286589;27;126308;-63
2021/04/28 01:03:47;;;;;;;;;32.60;30.00;;;;;10.38;33.00;98448.47;6253477;27;122936;-63
2021/04/28 01:06:50;;;;;;;;;32.20;29.00;;;;;10.41;33.03;98455.25;6258786;27;124834;-63
2021/04/28 01:09:54;;;;;;;;;36.50;31.50;;;;;10.37;33.30;98449.50;6263455;27;124049;-63
2021/04/28 01:12:58;;;;;;;;;32.60;30.00;;;;;10.16;33.31;98433.06;6264696;27;124895;-63
2021/04/28 01:16:01;;;;;;;;;32.40;30.00;;;;;10.26;33.27;98446.81;6281245;27;126429;-63
2021/04/28 01:19:04;;;;;;;;;35.75;32.00;;;;;10.15;33.59;98448.38;6285980;27;124207;-63
2021/04/28 01:22:15;;;;;;;;;36.60;32.40;;;;;10.07;33.58;98448.69;6284944;27;124488;-63
2021/04/28 01:25:20;;;;;;;;;34.00;30.00;;;;;10.08;33.89;98447.63;6285788;27;124967;-63
2021/04/28 01:28:25;;;;;;;;;33.60;30.00;;;;;10.05;34.08;98455.38;6285351;27;126632;-63
2021/04/28 01:31:32;;;;;;;;;37.25;32.00;;;;;10.00;34.07;98445.28;6285920;27;126189;-63
2021/04/28 01:34:38;;;;;;;;;34.50;30.00;;;;;9.96;34.21;98450.31;6272125;27;124819;-63
2021/04/28 01:37:43;;;;;;;;;37.00;32.00;;;;;9.78;33.94;98420.72;6285212;27;126164;-63
2021/04/28 01:40:48;;;;;;;;;40.00;32.00;;;;;10.03;34.11;98450.19;6284092;27;125991;-63
2021/04/28 01:43:52;;;;;;;;;33.00;30.20;;;;;9.95;34.12;98432.50;6283314;27;126843;-63
2021/04/28 01:46:55;;;;;;;;;36.00;32.00;;;;;9.94;34.38;98438.94;6281937;27;126138;-63
2021/04/28 01:50:00;;;;;;;;;33.80;30.40;;;;;9.91;34.47;98435.88;6286127;27;125715;-63
2021/04/28 01:53:04;;;;;;;;;34.50;30.00;;;;;9.83;34.86;98436.19;6287274;27;125453;-63
2021/04/28 01:56:10;;;;;;;;;34.75;32.00;;;;;9.81;34.87;98441.00;6269009;27;124724;-64
2021/04/28 01:59:21;;;;;;;;;35.50;30.00;;;;;9.69;34.92;98440.09;6285519;27;124369;-63
2021/04/28 02:02:40;;;;;;;;;36.00;31.40;;;;;9.67;35.25;98442.22;6271592;27;126359;-63
2021/04/28 02:05:43;;;;;;;;;35.00;31.20;;;;;9.71;34.87;98440.72;6250962;27;125428;-62
2021/04/28 02:08:46;;;;;;;;;34.40;31.00;;;;;9.76;34.95;98432.78;6284282;27;126604;-62
2021/04/28 02:11:50;;;;;;;;;37.50;31.75;;;;;9.71;35.01;98424.56;6270922;27;126457;-63
2021/04/28 02:14:54;;;;;;;;;36.00;31.00;;;;;9.73;35.20;98427.81;6285466;27;124564;-62
2021/04/28 02:18:04;;;;;;;;;33.00;30.00;;;;;9.65;35.01;98431.66;6268811;27;126727;-64
2021/04/28 02:21:10;;;;;;;;;34.00;30.00;;;;;9.64;35.04;98430.00;6283796;27;125612;-64
2021/04/28 02:24:33;;;;;;;;;33.00;31.00;;;;;9.58;35.16;98426.34;6268326;27;124628;-62
2021/04/28 02:27:37;;;;;;;;;36.00;30.00;;;;;9.56;35.06;98433.03;6276852;27;126268;-64
2021/04/28 02:30:40;;;;;;;;;34.25;30.00;;;;;9.48;35.35;98422.56;6275992;27;125932;-64
2021/04/28 02:33:42;;;;;;;;;34.40;31.00;;;;;9.54;35.16;98418.97;6258229;27;126457;-64
2021/04/28 02:37:05;;;;;;;;;33.00;29.20;;;;;9.50;35.21;98423.97;6286458;27;125839;-64
2021/04/28 02:40:44;;;;;;;;;34.40;29.80;;;;;9.31;35.13;98402.69;6233823;27;126343;-62
2021/04/28 02:43:48;;;;;;;;;37.00;32.00;;;;;9.41;35.51;98425.34;6277883;27;124244;-63
2021/04/28 02:46:57;;;;;;;;;34.80;31.00;;;;;9.53;35.12;98425.38;6284240;27;125847;-63
2021/04/28 02:50:04;;;;;;;;;33.75;31.75;;;;;9.52;34.94;98427.28;6283478;27;126360;-64
2021/04/28 02:53:37;;;;;;;;;32.40;30.00;;;;;9.52;34.97;98421.91;6281345;27;124588;-63
2021/04/28 02:56:53;;;;;;;;;33.60;32.00;;;;;9.39;35.38;98427.41;6279322;27;124806;-63
2021/04/28 02:59:56;;;;;;;;;32.80;30.00;;;;;9.37;35.23;98431.41;6285105;27;124564;-63
2021/04/28 03:03:01;;;;;;;;;36.40;32.00;;;;;9.29;35.17;98423.63;6282369;27;124918;-63
2021/04/28 03:06:06;;;;;;;;;35.40;30.60;;;;;9.16;35.52;98413.00;6279485;27;124541;-62
2021/04/28 03:09:19;;;;;;;;;34.00;32.00;;;;;9.23;35.47;98430.72;6269823;27;127189;-62
2021/04/28 03:12:24;;;;;;;;;38.00;32.00;;;;;9.19;35.72;98426.81;6281939;27;126475;-62
2021/04/28 03:15:34;;;;;;;;;38.60;33.00;;;;;9.23;35.44;98429.91;6275286;27;123795;-63
2021/04/28 03:18:40;;;;;;;;;39.40;32.00;;;;;8.99;36.06;98440.47;6282985;27;126465;-64
2021/04/28 03:21:45;;;;;;;;;34.60;32.00;;;;;9.04;36.27;98440.63;6266602;27;124157;-63
2021/04/28 03:24:50;;;;;;;;;41.80;33.00;;;;;9.02;36.06;98440.06;6257111;27;124633;-63
2021/04/28 03:27:54;;;;;;;;;39.50;33.00;;;;;9.06;35.87;98435.03;6278151;27;125531;-64
2021/04/28 03:30:58;;;;;;;;;38.00;33.00;;;;;9.02;36.04;98439.22;6266748;27;124967;-63
2021/04/28 03:34:00;;;;;;;;;38.20;32.20;;;;;8.99;36.27;98445.84;6281964;27;127205;-64
2021/04/28 03:37:04;;;;;;;;;39.75;33.00;;;;;9.06;36.04;98443.94;6283174;27;125975;-64
2021/04/28 03:40:16;;;;;;;;;40.80;33.80;;;;;9.01;35.98;98441.09;6283329;27;124755;-63
2021/04/28 03:43:19;;;;;;;;;39.75;33.00;;;;;8.74;36.00;98395.88;6284929;27;124681;-63
2021/04/28 03:46:22;;;;;;;;;40.60;35.00;;;;;9.00;36.39;98439.44;6282449;27;126580;-62
2021/04/28 03:49:27;;;;;;;;;37.00;32.25;;;;;9.04;36.27;98435.25;6282865;27;124667;-62
2021/04/28 03:52:30;;;;;;;;;44.50;35.00;;;;;9.00;36.36;98446.69;6282634;27;124661;-63
2021/04/28 03:55:51;;;;;;;;;36.00;32.25;;;;;8.97;36.59;98447.13;6284610;27;126442;-62
2021/04/28 03:58:54;;;;;;;;;42.00;35.75;;;;;8.99;36.62;98447.75;6284133;27;126098;-63
2021/04/28 04:01:57;;;;;;;;;45.00;36.00;;;;;8.96;36.45;98442.78;6283143;27;126406;-64
2021/04/28 04:05:08;;;;;;;;;39.00;33.00;;;;;8.95;36.85;98446.53;6278633;27;124866;-63
2021/04/28 04:08:21;;;;;;;;;44.40;36.00;;;;;9.01;36.65;98454.53;6287272;27;126710;-63
2021/04/28 04:11:26;;;;;;;;;41.40;35.00;;;;;9.03;36.73;98457.84;6281699;27;126017;-63
2021/04/28 04:14:28;;;;;;;;;40.60;34.60;;;;;9.02;36.57;98450.81;6270638;27;123555;-63
2021/04/28 04:17:33;;;;;;;;;38.80;33.00;;;;;9.16;36.52;98456.03;6287424;27;124808;-63
2021/04/28 04:20:53;;;;;;;;;39.75;34.00;;;;;9.24;36.43;98458.44;6256590;27;124885;-63
2021/04/28 04:24:05;;;;;;;;;41.60;33.40;;;;;9.33;35.90;98455.25;6285220;27;126394;-63
2021/04/28 04:27:18;;;;;;;;;40.40;33.40;;;;;9.44;36.13;98462.53;6278361;27;126789;-63
2021/04/28 04:30:23;;;;;;;;;41.60;33.20;;;;;9.59;35.94;98462.16;6286340;27;125253;-63
2021/04/28 04:33:41;;;;;;;;;42.20;34.20;;;;;9.72;35.80;98470.09;6287498;27;126088;-63
2021/04/28 04:37:03;;;;;;;;;41.60;35.00;;;;;9.73;35.66;98466.34;6288028;27;124732;-63
2021/04/28 04:40:31;;;;;;;;;35.80;32.20;;;;;9.82;35.34;98461.47;6282713;27;125927;-63
2021/04/28 04:44:02;;;;;;;;;41.00;35.00;;;;;9.87;35.45;98465.13;6264365;27;124129;-62
2021/04/28 04:47:14;;;;;;;;;42.00;35.00;;;;;9.96;35.16;98463.78;6286669;27;123809;-63
2021/04/28 04:50:17;;;;;;;;;44.50;35.00;;;;;10.07;35.30;98459.47;6285927;27;125314;-63
2021/04/28 04:53:20;;;;;;;;;42.00;35.00;;;;;10.10;34.92;98442.03;6278747;27;127176;-63
2021/04/28 04:56:22;;;;;;;;;42.60;35.40;;;;;10.33;35.04;98456.41;6283678;27;127028;-63
2021/04/28 04:59:25;;;;;;;;;36.20;32.20;;;;;10.44;34.58;98452.13;6281111;27;125099;-63
2021/04/28 05:02:27;;;;;;;;;40.00;33.20;;;;;10.47;34.65;98458.91;6284340;27;125171;-63
2021/04/28 05:05:30;;;;;;;;;40.00;34.00;;;;;10.59;34.40;98459.75;6286577;27;126574;-63
2021/04/28 05:08:33;;;;;;;;;37.25;32.75;;;;;10.62;34.24;98459.28;6271183;27;124835;-63
2021/04/28 05:11:35;;;;;;;;;41.60;35.00;;;;;10.61;34.26;98463.03;6287082;27;124015;-64
2021/04/28 05:14:38;;;;;;;;;33.60;30.60;;;;;10.71;34.35;98458.72;6277849;27;125060;-63
2021/04/28 05:17:40;;;;;;;;;39.40;33.40;;;;;10.91;34.36;98461.06;6282040;27;127073;-63
2021/04/28 05:20:43;;;;;;;;;40.60;34.00;;;;;11.08;33.91;98453.09;6285463;27;125985;-63
2021/04/28 05:23:46;;;;;;;;;38.40;33.00;;;;;11.25;33.64;98460.25;6276764;27;124976;-63
2021/04/28 05:27:08;;;;;;;;;37.25;32.00;;;;;11.48;33.60;98466.69;6273764;27;124994;-63
2021/04/28 05:30:12;;;;;;;;;38.80;33.00;;;;;11.61;33.04;98466.41;6251901;27;126822;-63
2021/04/28 05:33:14;;;;;;;;;37.20;32.00;;;;;11.67;33.02;98468.16;6287042;27;124961;-63
2021/04/28 05:36:17;;;;;;;;;39.00;32.00;;;;;11.84;32.94;98460.13;6284817;27;126268;-63
2021/04/28 05:39:19;;;;;;;;;36.60;32.20;;;;;11.79;32.41;98431.16;6259750;27;124115;-63
2021/04/28 05:42:21;;;;;;;;;37.00;31.40;;;;;12.13;32.04;98459.91;6283933;27;125810;-62
2021/04/28 05:45:24;;;;;;;;;37.20;33.60;;;;;12.19;31.88;98457.31;6281628;27;125167;-64
2021/04/28 05:48:26;;;;;;;;;36.00;32.00;;;;;12.25;31.89;98461.75;6276847;27;126515;-62
2021/04/28 05:51:30;;;;;;;;;36.50;32.00;;;;;12.42;32.12;98474.22;6285650;27;125939;-63
2021/04/28 05:54:33;;;;;;;;;36.50;33.00;;;;;12.56;31.56;98458.50;6264457;27;125000;-63
2021/04/28 05:57:37;;;;;;;;;33.00;31.00;;;;;12.68;31.55;98467.38;6268043;27;122848;-63
2021/04/28 06:00:39;;;;;;;;;38.00;31.25;;;;;12.80;31.59;98457.31;6289875;27;124864;-64
2021/04/28 06:03:42;;;;;;;;;33.00;30.40;;;;;12.89;31.59;98463.09;6293260;27;128689;-64
2021/04/28 06:06:45;;;;;;;;;32.60;30.00;;;;;13.07;31.23;98467.44;6281135;27;126102;-64
2021/04/28 06:09:47;;;;;;;;;33.60;30.00;;;;;13.14;31.11;98463.53;6280319;27;126527;-64
2021/04/28 06:12:49;;;;;;;;;35.50;32.00;;;;;13.26;31.10;98455.28;6286129;27;128279;-64
2021/04/28 06:15:59;;;;;;;;;33.00;30.00;;;;;13.54;31.07;98467.84;6284747;27;126388;-64
2021/04/28 06:19:06;;;;;;;;;31.60;30.00;;;;;13.76;30.67;98468.69;6265625;27;126266;-63
2021/04/28 06:22:09;;;;;;;;;34.80;31.00;;;;;14.00;30.99;98458.41;6267887;27;128208;-64
2021/04/28 06:25:14;;;;;;;;;30.00;27.80;;;;;14.08;28.99;98463.34;6285982;27;125786;-64
2021/04/28 06:28:16;;;;;;;;;30.00;29.00;;;;;14.23;29.46;98466.25;6282822;27;126891;-62
2021/04/28 06:31:19;;;;;;;;;31.00;29.00;;;;;14.46;29.45;98460.56;6274205;27;126457;-64
2021/04/28 06:34:26;;;;;;;;;33.00;30.00;;;;;14.73;29.49;98460.50;6285866;27;126185;-64
2021/04/28 06:37:29;;;;;;;;;30.50;28.00;;;;;14.76;28.12;98449.13;6286361;27;126454;-63
2021/04/28 06:40:31;;;;;;;;;30.00;28.00;;;;;14.95;28.56;98452.28;6281829;27;126193;-63
2021/04/28 06:43:33;;;;;;;;;28.00;27.60;;;;;14.92;28.51;98448.19;6285438;27;126581;-63
2021/04/28 06:46:40;;;;;;;;;32.60;28.00;;;;;15.06;29.02;98443.09;6285862;27;126627;-63
2021/04/28 06:49:42;;;;;;;;;28.40;27.40;;;;;15.18;28.56;98436.41;6280564;27;125731;-64
2021/04/28 06:52:45;;;;;;;;;28.00;26.00;;;;;15.34;28.03;98434.63;6269991;27;127591;-63
2021/04/28 06:55:47;;;;;;;;;26.00;22.00;;;;;15.42;28.19;98425.13;6279449;27;125179;-64
2021/04/28 06:58:51;;;;;;;;;29.00;26.80;;;;;15.64;28.35;98427.72;6280029;27;125361;-63
2021/04/28 07:01:53;;;;;;;;;28.20;26.80;;;;;15.99;28.33;98428.66;6275256;27;127240;-63
2021/04/28 07:05:32;;;;;;;;;25.50;25.00;;;;;16.22;27.03;98424.66;6277042;27;126158;-63
2021/04/28 07:08:37;;;;;;;;;23.00;21.60;;;;;16.46;26.67;98422.22;6258622;27;125800;-63
2021/04/28 07:11:40;;;;;;;;;20.00;19.00;;;;;16.67;26.43;98421.16;6271840;27;126173;-64
2021/04/28 07:14:43;;;;;;;;;25.20;23.40;;;;;16.72;26.03;98420.34;6243280;27;123633;-64
2021/04/28 07:17:46;;;;;;;;;22.60;20.60;;;;;16.95;25.93;98425.25;6276682;27;126163;-63
2021/04/28 07:20:48;;;;;;;;;21.00;20.60;;;;;17.00;25.54;98425.25;6283405;27;124888;-63
2021/04/28 07:23:52;;;;;;;;;24.00;22.80;;;;;17.30;26.19;98429.78;6275421;27;126478;-64
2021/04/28 07:26:54;;;;;;;;;22.00;20.00;;;;;17.64;25.56;98425.34;6284004;27;126779;-64
2021/04/28 07:29:56;;;;;;;;;20.60;20.00;;;;;17.92;24.76;98423.91;6270927;27;125407;-63
2021/04/28 07:32:59;;;;;;;;;20.60;19.40;;;;;18.10;24.28;98416.97;6268517;27;127395;-65
2021/04/28 07:36:01;;;;;;;;;18.00;17.40;;;;;18.28;23.42;98429.13;6276992;27;126120;-64
2021/04/28 07:39:07;;;;;;;;;18.00;17.00;;;;;18.34;22.89;98431.56;6283907;27;126293;-63
2021/04/28 07:42:10;;;;;;;;;21.00;20.00;;;;;18.49;23.76;98425.16;6278281;27;127223;-64
2021/04/28 07:45:13;;;;;;;;;16.60;16.00;;;;;18.49;22.62;98425.16;6285437;27;125586;-64
2021/04/28 07:48:16;;;;;;;;;16.80;15.80;;;;;18.67;22.94;98423.72;6282982;27;126336;-64
2021/04/28 07:51:18;;;;;;;;;21.50;20.00;;;;;18.93;23.60;98428.66;6286658;27;126192;-63
2021/04/28 07:54:22;;;;;;;;;19.40;17.60;;;;;19.22;23.03;98428.66;6288576;27;123818;-64
2021/04/28 07:57:24;;;;;;;;;22.75;18.75;;;;;19.57;22.98;98427.50;6287871;27;125813;-64
2021/04/28 08:00:28;;;;;;;;;20.40;20.00;;;;;19.85;23.11;98434.81;6280103;27;125066;-64
2021/04/28 08:03:30;;;;;;;;;21.00;19.00;;;;;20.09;22.55;98432.03;6284565;27;126720;-64
2021/04/28 08:06:33;;;;;;;;;18.60;18.00;;;;;20.43;22.86;98429.09;6265030;27;127699;-64
2021/04/28 08:09:37;;;;;;;;;20.00;18.40;;;;;20.77;22.31;98425.31;6272361;27;125783;-63
2021/04/28 08:12:39;;;;;;;;;17.00;17.00;;;;;20.72;21.41;98424.25;6288505;27;127251;-63
2021/04/28 08:15:42;;;;;;;;;17.75;17.00;;;;;21.03;22.65;98423.75;6285190;27;125244;-64
2021/04/28 08:18:44;;;;;;;;;16.60;14.60;;;;;21.33;21.25;98422.44;6279153;27;126432;-63
2021/04/28 08:21:46;;;;;;;;;18.00;16.00;;;;;21.45;20.41;98411.78;6284700;27;128338;-63
2021/04/28 08:24:51;;;;;;;;;17.00;15.00;;;;;21.51;21.27;98400.41;6289058;27;126754;-64
2021/04/28 08:27:53;;;;;;;;;17.00;15.25;;;;;21.82;20.94;98421.72;6276980;27;124935;-63
2021/04/28 08:30:58;;;;;;;;;17.40;15.40;;;;;22.04;20.84;98421.81;6278296;27;126360;-63
2021/04/28 08:34:02;;;;;;;;;19.00;16.00;;;;;22.22;20.81;98425.56;6259152;27;124945;-63
2021/04/28 08:37:04;;;;;;;;;17.75;15.00;;;;;22.47;21.46;98416.75;6271718;27;126014;-64
2021/04/28 08:40:08;;;;;;;;;16.80;14.80;;;;;22.74;21.08;98408.44;6280274;27;126588;-64
2021/04/28 08:43:11;;;;;;;;;16.40;16.00;;;;;22.83;19.73;98401.03;6275521;27;125280;-64
2021/04/28 08:46:19;;;;;;;;;17.00;16.40;;;;;23.07;20.23;98402.63;6270227;27;124186;-64
2021/04/28 08:49:28;;;;;;;;;19.00;17.40;;;;;23.30;20.08;98404.25;6258417;27;126088;-63
2021/04/28 08:52:39;;;;;;;;;16.20;16.20;;;;;23.50;20.32;98400.97;6263375;27;124102;-63
2021/04/28 08:55:47;;;;;;;;;19.80;18.00;;;;;23.48;19.46;98405.97;6274455;27;126605;-63
2021/04/28 08:58:50;;;;;;;;;16.20;15.00;;;;;23.40;19.35;98403.16;6280515;27;126077;-63
2021/04/28 09:01:53;;;;;;;;;16.40;15.00;;;;;23.46;19.70;98401.91;6279927;27;126829;-63
2021/04/28 09:05:06;;;;;;;;;17.50;17.00;;;;;23.67;20.13;98405.72;6282185;27;126303;-63
2021/04/28 09:08:10;;;;;;;;;15.40;15.00;;;;;23.86;20.06;98398.00;6282927;27;126022;-63
2021/04/28 09:11:33;;;;;;;;;15.80;15.00;;;;;24.13;19.42;98392.22;6288092;27;127306;-62
2021/04/28 09:14:46;;;;;;;;;15.00;14.00;;;;;24.22;18.85;98391.44;6269908;27;126543;-62
2021/04/28 09:17:52;;;;;;;;;12.67;12.67;;;;;24.01;18.99;98377.44;6278527;27;124712;-62
2021/04/28 09:21:13;;;;;;;;;15.00;13.00;;;;;24.07;18.63;98371.47;6284658;27;127022;-64
2021/04/28 09:24:47;;;;;;;;;12.60;12.20;;;;;24.30;19.84;98371.34;6238489;27;126454;-63
2021/04/28 09:28:37;;;;;;;;;16.00;14.00;;;;;24.67;19.47;98369.88;6270008;27;127171;-63
2021/04/28 09:32:06;;;;;;;;;13.00;12.00;;;;;25.00;18.05;98365.47;6278066;27;125842;-63
2021/04/28 09:35:13;;;;;;;;;14.00;13.00;;;;;25.03;19.12;98362.03;6271759;27;126073;-64
2021/04/28 09:38:16;;;;;;;;;13.00;12.00;;;;;25.08;18.11;98361.06;6273142;27;127131;-62
2021/04/28 09:41:37;;;;;;;;;12.80;11.00;;;;;25.06;17.51;98355.88;6275746;27;127488;-63
2021/04/28 09:44:46;;;;;;;;;11.60;11.60;;;;;24.55;17.54;98341.03;6273524;27;128693;-63
2021/04/28 09:47:50;;;;;;;;;12.20;12.00;;;;;24.44;19.38;98345.25;6275478;27;125578;-63
2021/04/28 09:51:03;;;;;;;;;12.00;12.00;;;;;24.41;18.14;98334.06;6272249;27;126074;-63
2021/04/28 09:54:11;;;;;;;;;10.00;9.60;;;;;24.41;17.93;98334.91;6278035;27;127199;-63
2021/04/28 09:57:15;;;;;;;;;13.00;12.00;;;;;24.45;18.67;98332.28;6272023;27;127179;-63
2021/04/28 10:00:21;;;;;;;;;11.80;10.20;;;;;24.56;18.39;98328.88;6274015;27;127908;-63
2021/04/28 10:03:42;;;;;;;;;11.00;10.00;;;;;24.85;18.27;98319.91;6260932;27;124264;-63
2021/04/28 10:06:46;;;;;;;;;14.60;11.00;;;;;25.24;18.54;98313.31;6264073;27;125967;-63
2021/04/28 10:09:50;;;;;;;;;10.80;10.00;;;;;25.45;17.21;98313.38;6268702;27;127311;-63
2021/04/28 10:12:52;;;;;;;;;13.00;12.00;;;;;25.69;17.85;98304.50;6276870;27;127892;-63
2021/04/28 10:15:55;;;;;;;;;10.80;10.20;;;;;25.69;16.77;98298.97;6283429;27;127223;-63
2021/04/28 10:18:57;;;;;;;;;10.00;9.20;;;;;25.19;15.54;98301.63;6282127;27;125328;-63
2021/04/28 10:22:03;;;;;;;;;10.75;10.00;;;;;25.47;16.95;98294.50;6275055;27;125402;-63
2021/04/28 10:25:07;;;;;;;;;10.75;10.00;;;;;25.57;15.42;98285.88;6275480;27;123783;-63
2021/04/28 10:28:11;;;;;;;;;9.00;8.00;;;;;25.87;16.57;98287.47;6272132;27;124730;-64
2021/04/28 10:31:18;;;;;;;;;9.00;9.00;;;;;26.17;16.45;98281.88;6277594;27;125136;-63
2021/04/28 10:34:27;;;;;;;;;11.00;10.00;;;;;26.38;16.36;98277.16;6282327;27;125974;-63
2021/04/28 10:37:31;;;;;;;;;10.00;9.80;;;;;26.62;15.90;98279.19;6283968;27;125962;-64
2021/04/28 10:40:36;;;;;;;;;10.00;9.00;;;;;26.88;16.17;98271.41;6275686;27;125009;-64
2021/04/28 10:43:39;;;;;;;;;9.60;9.60;;;;;26.87;15.54;98261.53;6274020;27;124065;-63
2021/04/28 10:46:42;;;;;;;;;10.60;10.00;;;;;27.15;15.51;98264.44;6271286;27;127474;-64
2021/04/28 10:50:14;;;;;;;;;10.00;9.00;;;;;27.09;15.05;98268.56;6274221;27;125341;-64
2021/04/28 10:53:19;;;;;;;;;9.00;8.60;;;;;26.98;15.05;98267.41;6271689;27;125074;-63
2021/04/28 10:56:21;;;;;;;;;10.00;9.00;;;;;26.64;14.44;98269.38;6268457;27;125679;-63
2021/04/28 10:59:41;;;;;;;;;11.00;10.00;;;;;26.47;15.27;98260.47;6280161;27;125201;-64
2021/04/28 11:02:45;;;;;;;;;11.75;10.00;;;;;25.85;15.21;98259.34;6272761;27;124458;-63
2021/04/28 11:05:47;;;;;;;;;11.00;10.00;;;;;25.67;15.53;98257.06;6277457;27;124929;-63
2021/04/28 11:09:14;;;;;;;;;11.00;8.80;;;;;25.96;16.71;98258.97;6269785;27;125783;-65
2021/04/28 11:12:16;;;;;;;;;8.00;7.00;;;;;26.26;15.73;98252.22;6272007;27;126397;-64
2021/04/28 11:15:44;;;;;;;;;9.60;8.00;;;;;26.49;15.26;98244.34;6269114;27;125116;-64
2021/04/28 11:18:47;;;;;;;;;9.00;8.00;;;;;26.00;15.49;98246.13;6275306;27;125081;-65
2021/04/28 11:22:17;;;;;;;;;8.75;7.00;;;;;26.20;16.24;98240.53;6272905;27;124987;-66
2021/04/28 11:25:20;;;;;;;;;9.00;9.00;;;;;26.23;15.66;98239.09;6272108;27;125945;-64
2021/04/28 11:28:35;;;;;;;;;9.00;8.50;;;;;26.17;14.83;98238.47;6273378;27;126414;-64
2021/04/28 11:31:42;;;;;;;;;8.00;8.00;;;;;26.05;15.54;98229.31;6268418;27;126102;-63
2021/04/28 11:34:54;;;;;;;;;10.00;8.60;;;;;25.43;15.36;98232.84;6270173;27;123867;-63
2021/04/28 11:38:03;;;;;;;;;10.60;9.00;;;;;25.23;16.65;98225.34;6274906;27;126098;-62
2021/04/28 11:41:09;;;;;;;;;9.00;9.00;;;;;25.45;16.67;98231.38;6270181;27;126896;-63
2021/04/28 11:44:12;;;;;;;;;8.00;7.00;;;;;25.21;15.37;98194.53;6271162;27;126027;-64
2021/04/28 11:47:16;;;;;;;;;10.00;9.00;;;;;25.54;15.94;98216.72;6273263;27;126762;-65
2021/04/28 11:50:20;;;;;;;;;7.60;7.00;;;;;25.81;15.25;98213.44;6276571;27;126085;-63
2021/04/28 11:53:23;;;;;;;;;10.00;9.60;;;;;25.94;16.24;98206.84;6275781;27;125229;-64
2021/04/28 11:56:36;;;;;;;;;8.00;7.75;;;;;26.10;15.73;98185.72;6272880;27;127015;-63
2021/04/28 11:59:39;;;;;;;;;9.50;8.50;;;;;26.04;14.85;98197.31;6278918;27;127508;-63
2021/04/28 12:02:41;;;;;;;;;9.00;8.00;;;;;26.30;15.27;98190.41;6272613;27;126389;-65
2021/04/28 12:05:44;;;;;;;;;8.00;8.00;;;;;26.30;15.99;98187.66;6270772;27;127609;-64
2021/04/28 12:09:01;;;;;;;;;9.00;8.00;;;;;25.94;15.13;98195.78;6251832;27;125240;-64
2021/04/28 12:12:16;;;;;;;;;10.00;9.00;;;;;25.84;15.33;98185.16;6273558;27;126455;-64
2021/04/28 12:15:19;;;;;;;;;8.80;7.80;;;;;25.63;15.09;98193.44;6280777;27;125719;-64
2021/04/28 12:18:30;;;;;;;;;7.60;7.20;;;;;25.53;14.99;98180.03;6283004;27;125388;-64
2021/04/28 12:21:33;;;;;;;;;10.00;9.40;;;;;25.62;15.12;98179.97;6274935;27;127489;-63
2021/04/28 12:24:37;;;;;;;;;9.00;9.00;;;;;25.76;15.65;98174.97;6283275;27;125134;-63
2021/04/28 12:27:39;;;;;;;;;9.00;8.00;;;;;25.90;15.18;98174.72;6283009;27;126075;-64
2021/04/28 12:30:49;;;;;;;;;8.00;8.00;;;;;25.91;15.31;98176.31;6286547;27;125067;-65
2021/04/28 12:33:55;;;;;;;;;8.00;7.00;;;;;24.97;15.45;98168.38;6275495;27;126174;-64
2021/04/28 12:37:16;;;;;;;;;7.20;7.20;;;;;25.01;16.48;98161.06;6277467;27;125654;-63
2021/04/28 12:40:18;;;;;;;;;9.60;9.00;;;;;24.86;15.72;98163.56;6278720;27;125691;-64
2021/04/28 12:43:24;;;;;;;;;8.00;7.00;;;;;24.49;15.92;98162.41;6274067;27;127621;-64
2021/04/28 12:46:33;;;;;;;;;8.00;7.60;;;;;24.56;15.43;98157.22;6275118;27;124981;-63
2021/04/28 12:49:37;;;;;;;;;8.75;7.75;;;;;24.46;15.75;98149.31;6278963;27;126678;-63
2021/04/28 12:52:42;;;;;;;;;9.75;9.00;;;;;24.07;16.32;98128.34;6278662;27;126641;-63
2021/04/28 12:55:45;;;;;;;;;9.25;8.00;;;;;24.16;16.08;98140.13;6278320;27;126461;-63
2021/04/28 12:58:49;;;;;;;;;9.00;9.00;;;;;24.50;16.73;98133.72;6278144;27;124880;-63
2021/04/28 13:01:59;;;;;;;;;10.00;9.40;;;;;24.80;16.27;98123.53;6285738;27;128644;-63
2021/04/28 13:05:01;;;;;;;;;8.50;8.00;;;;;24.95;15.78;98125.75;6278605;27;126601;-64
2021/04/28 13:08:18;;;;;;;;;10.00;9.00;;;;;25.02;16.00;98126.81;6274011;27;124770;-63
2021/04/28 13:11:32;;;;;;;;;8.20;8.20;;;;;25.20;15.72;98123.94;6275949;27;124214;-63
2021/04/28 13:14:48;;;;;;;;;9.60;9.60;;;;;25.24;15.55;98127.66;6258097;27;123960;-64
2021/04/28 13:17:59;;;;;;;;;9.00;8.40;;;;;25.32;15.62;98115.72;6281144;27;126360;-63
2021/04/28 13:21:19;;;;;;;;;8.75;8.00;;;;;25.37;15.75;98107.25;6276815;27;127223;-64
2021/04/28 13:24:25;;;;;;;;;10.00;9.00;;;;;25.41;15.79;98108.22;6284785;27;127209;-64
2021/04/28 13:27:28;;;;;;;;;10.00;9.20;;;;;25.54;15.67;98100.78;6280757;27;126081;-64
2021/04/28 13:30:30;;;;;;;;;9.80;9.00;;;;;25.33;15.66;98100.81;6275765;27;127253;-70
2021/04/28 13:33:37;;;;;;;;;12.20;11.00;;;;;25.50;15.74;98103.44;6268875;27;125858;-63
2021/04/28 13:36:46;;;;;;;;;11.00;10.60;;;;;25.45;15.30;98093.41;6285933;27;127401;-63
2021/04/28 13:39:49;;;;;;;;;11.00;10.00;;;;;25.29;15.27;98086.06;6285926;27;124502;-63
2021/04/28 13:42:51;;;;;;;;;11.00;10.75;;;;;25.05;15.15;98102.47;6281098;27;125539;-63
2021/04/28 13:45:55;;;;;;;;;11.00;10.00;;;;;24.91;15.89;98087.00;6273953;27;127500;-63
2021/04/28 13:48:57;;;;;;;;;11.75;11.00;;;;;24.84;15.52;98083.94;6272426;27;126335;-63
2021/04/28 13:52:01;;;;;;;;;11.00;11.00;;;;;25.13;16.08;98083.09;6272166;27;125899;-63
2021/04/28 13:55:06;;;;;;;;;10.00;9.00;;;;;25.46;15.89;98086.72;6272553;27;124950;-64
2021/04/28 13:58:08;;;;;;;;;10.00;9.80;;;;;25.56;15.24;98074.47;6281803;27;125009;-64
2021/04/28 14:01:10;;;;;;;;;10.60;10.00;;;;;25.12;15.79;98078.72;6280370;27;125498;-64
2021/04/28 14:04:13;;;;;;;;;12.00;11.40;;;;;24.78;15.90;98087.19;6286409;27;126770;-63
2021/04/28 14:07:15;;;;;;;;;11.00;11.00;;;;;24.16;15.83;98049.25;6277258;27;126904;-63
2021/04/28 14:10:18;;;;;;;;;12.00;11.50;;;;;24.43;16.40;98076.41;6275848;27;125641;-64
2021/04/28 14:13:20;;;;;;;;;12.00;10.00;;;;;24.63;16.43;98063.78;6269770;27;126182;-64
2021/04/28 14:16:22;;;;;;;;;13.00;12.25;;;;;24.86;15.97;98064.31;6275257;27;126061;-64